Language: 


Des rapports , des résumés tant et plus, au choix de chacun....


Données statistiques de la station
Quotidien Rapport Mars 30, 2017 Unités:  Anglais    Métrique   les deux
« Précédent Jour
Suivant Jour »
Quotidien Hebdomadaire Mensuel Annuel Actuel
  Haut: Bas: Moyen:
Température: 74.8 °F 50.2 °F 62.1 °F
Pt de rosée: 51.3 °F 43.3 °F 46.6 °F
Humidité: 83 % 37 % 60 %
Vitesse du vent: 13.2 mph 0 mph 4.8 mph
Rafales: 15.4 mph - -
Vent:- - South
Pression: 30.2 in 30 in -
Précipitation: 0 in    
Historical Graphs
 
 
Données statistiques pour Mars 30, 2017
Heure Température Point de rosée Pression Vent Vitesse du vent Refales Humidité Pluie (taux horaire)
00:00 55.6 °F 47.7 °F 30.2 in Calm   2.9 mph 75 % 0 in
00:05 55.6 °F 47.3 °F 30.2 in Calm   2.5 mph 74 % 0 in
00:10 55.6 °F 47.5 °F 30.2 in Calm   4.9 mph 74 % 0 in
00:15 55.8 °F 47.7 °F 30.2 in Calm   4.9 mph 74 % 0 in
00:20 55.6 °F 47.5 °F 30.2 in Calm   3.4 mph 74 % 0 in
00:25 55.6 °F 47.5 °F 30.2 in Calm   4.9 mph 74 % 0 in
00:30 55.6 °F 47.1 °F 30.2 in Calm   4.9 mph 73 % 0 in
00:35 55.6 °F 47.1 °F 30.2 in South 3.6 mph 4.3 mph 73 % 0 in
00:40 55.6 °F 46.9 °F 30.2 in South 3.1 mph 5.4 mph 73 % 0 in
00:45 55.2 °F 46.8 °F 30.2 in South 3.4 mph 5.4 mph 73 % 0 in
00:50 55 °F 46.6 °F 30.2 in SSW 4.9 mph 5.4 mph 73 % 0 in
00:55 54.9 °F 46.4 °F 30.2 in SSW 3.4 mph 5.6 mph 73 % 0 in
01:00 54.7 °F 46 °F 30.2 in Calm   5.6 mph 73 % 0 in
01:05 54.3 °F 45.9 °F 30.2 in South 3.6 mph 5.4 mph 73 % 0 in
01:10 54 °F 45.7 °F 30.2 in South 3.6 mph 5.4 mph 73 % 0 in
01:15 54 °F 45.9 °F 30.2 in South 5.6 mph 5.6 mph 74 % 0 in
01:20 54 °F 45.9 °F 30.2 in South 0.9 mph 5.6 mph 74 % 0 in
01:25 53.8 °F 45.7 °F 30.2 in Calm   4.9 mph 74 % 0 in
01:30 53.4 °F 45.3 °F 30.2 in SSE 4 mph 4.9 mph 74 % 0 in
01:36 53.2 °F 45.7 °F 30.2 in South 3.8 mph 6 mph 75 % 0 in
01:41 53.2 °F 45.3 °F 30.2 in South 2.9 mph 6 mph 75 % 0 in
01:46 53.2 °F 45.7 °F 30.2 in South 4.5 mph 5.6 mph 75 % 0 in
01:51 53.2 °F 45.3 °F 30.2 in South 4.9 mph 5.8 mph 75 % 0 in
01:56 53.2 °F 45.9 °F 30.2 in South 3.1 mph 6 mph 76 % 0 in
02:01 53.2 °F 45.9 °F 30.2 in SSE 5.6 mph 6 mph 76 % 0 in
02:06 53.2 °F 46 °F 30.2 in South 3.8 mph 6.7 mph 77 % 0 in
02:11 53.2 °F 46 °F 30.2 in South 4 mph 6.7 mph 77 % 0 in
02:16 53.2 °F 46.2 °F 30.2 in SSW 4.7 mph 7.4 mph 77 % 0 in
02:21 53.2 °F 46.8 °F 30.2 in South 5.4 mph 7.4 mph 78 % 0 in
02:26 53.4 °F 46.8 °F 30.2 in SSW 3.1 mph 6.7 mph 78 % 0 in
02:31 53.4 °F 46.8 °F 30.2 in South 5.4 mph 7.2 mph 78 % 0 in
02:36 53.2 °F 46.2 °F 30.2 in South 5.6 mph 8.1 mph 77 % 0 in
02:41 53.2 °F 46 °F 30.2 in South 6 mph 8.1 mph 77 % 0 in
02:46 53.2 °F 46 °F 30.2 in South 4.5 mph 7.8 mph 77 % 0 in
02:51 53.2 °F 46.6 °F 30.2 in SSW 5.8 mph 7.8 mph 78 % 0 in
02:56 53.1 °F 46.2 °F 30.2 in South 6 mph 7.8 mph 78 % 0 in
02:57 53.1 °F 46.2 °F 30.2 in South 6.5 mph 7.8 mph 78 % 0 in
03:02 53.2 °F 46.6 °F 30.2 in South 7.2 mph 8.1 mph 78 % 0 in
03:07 53.2 °F 46.6 °F 30.2 in South 4 mph 8.1 mph 78 % 0 in
03:12 53.1 °F 46.8 °F 30.2 in South 6.5 mph 7.8 mph 79 % 0 in
03:17 52.9 °F 46.6 °F 30.2 in SSW 5.8 mph 8.1 mph 79 % 0 in
03:22 52.9 °F 46.6 °F 30.2 in South 5.4 mph 8.1 mph 79 % 0 in
03:27 52.5 °F 46.2 °F 30.2 in South 5.8 mph 7.4 mph 79 % 0 in
03:32 52.5 °F 46.2 °F 30.2 in South 2.7 mph 6.5 mph 79 % 0 in
03:37 52.5 °F 46 °F 30.2 in SSW 3.8 mph 6.5 mph 79 % 0 in
03:42 52.3 °F 46 °F 30.2 in South 3.8 mph 6.5 mph 79 % 0 in
03:47 52.3 °F 46 °F 30.2 in South 3.6 mph 6.5 mph 79 % 0 in
03:52 52.3 °F 46.2 °F 30.2 in South 4.9 mph 6.5 mph 80 % 0 in
03:57 52.2 °F 46 °F 30.2 in SSW 5.6 mph 6.5 mph 80 % 0 in
04:02 52.2 °F 46 °F 30.2 in South 1.6 mph 6.5 mph 80 % 0 in
04:07 52 °F 46 °F 30.2 in South 2.9 mph 6.3 mph 80 % 0 in
04:12 52 °F 46 °F 30.2 in South 4.9 mph 5.8 mph 80 % 0 in
04:17 51.8 °F 46 °F 30.2 in Calm   7.6 mph 81 % 0 in
04:22 51.8 °F 46 °F 30.2 in Calm   7.6 mph 81 % 0 in
04:27 51.6 °F 45.9 °F 30.2 in SSW 2.7 mph 6.5 mph 81 % 0 in
04:32 51.6 °F 45.9 °F 30.2 in South 2.9 mph 6.5 mph 81 % 0 in
04:37 51.4 °F 45.9 °F 30.2 in Calm   4.7 mph 81 % 0 in
04:42 51.1 °F 45.3 °F 30.2 in Calm   4.7 mph 81 % 0 in
04:47 50.9 °F 45.3 °F 30.2 in SSW 2.2 mph 2.9 mph 81 % 0 in
04:52 50.7 °F 45.1 °F 30.2 in South 1.3 mph 3.8 mph 81 % 0 in
04:57 50.5 °F 45.1 °F 30.2 in SSW 2.9 mph 4.3 mph 82 % 0 in
05:02 50.7 °F 45.3 °F 30.2 in Calm   4.7 mph 82 % 0 in
05:07 50.7 °F 45.3 °F 30.2 in Calm   4.7 mph 82 % 0 in
05:12 50.9 °F 45.9 °F 30.2 in SSW 3.1 mph 3.8 mph 83 % 0 in
05:17 51.1 °F 46 °F 30.2 in South 0.9 mph 4.9 mph 83 % 0 in
05:22 51.1 °F 46 °F 30.2 in South 3.1 mph 4.9 mph 83 % 0 in
05:27 51.3 °F 46.2 °F 30.2 in SSW 4 mph 5.6 mph 83 % 0 in
05:32 51.4 °F 46.4 °F 30.2 in South 4.5 mph 5.6 mph 83 % 0 in
05:37 51.6 °F 46.6 °F 30.2 in SSW 3.6 mph 5.8 mph 83 % 0 in
05:42 52 °F 46.9 °F 30.2 in South 2 mph 6.5 mph 83 % 0 in
05:47 52.2 °F 47.1 °F 30.2 in Calm   6.5 mph 83 % 0 in
05:52 52.3 °F 47.3 °F 30.2 in South 6 mph 6 mph 83 % 0 in
05:57 52.5 °F 47.5 °F 30.2 in South 6 mph 6.7 mph 83 % 0 in
05:58 52.5 °F 47.5 °F 30.2 in South 5.8 mph 6.7 mph 83 % 0 in
06:03 52.5 °F 47.7 °F 30.2 in South 6.3 mph 6.7 mph 83 % 0 in
06:08 52.9 °F 47.5 °F 30.2 in SSW 5.4 mph 7.2 mph 82 % 0 in
06:13 52.9 °F 47.5 °F 30.2 in SSW 5.6 mph 7.2 mph 82 % 0 in
06:18 52.5 °F 46.9 °F 30.2 in South 3.8 mph 6 mph 81 % 0 in
06:23 52.5 °F 46.9 °F 30.2 in South 3.8 mph 5.6 mph 81 % 0 in
06:28 52.5 °F 46.6 °F 30.2 in SSW 4.9 mph 6.5 mph 80 % 0 in
06:33 52.3 °F 46.2 °F 30.2 in South 6.7 mph 6.7 mph 80 % 0 in
06:38 52.2 °F 46 °F 30.2 in SSW 3.6 mph 6.7 mph 80 % 0 in
06:43 52 °F 46 °F 30.2 in South 3.4 mph 5.6 mph 80 % 0 in
06:48 51.6 °F 45.7 °F 30.2 in SSW 3.6 mph 5.6 mph 80 % 0 in
06:53 51.4 °F 45.3 °F 30.2 in SSW 3.8 mph 5.6 mph 80 % 0 in
06:58 51.3 °F 45.3 °F 30.2 in SSW 0.9 mph 5.4 mph 80 % 0 in
07:03 50.9 °F 45 °F 30.2 in South 2 mph 4.3 mph 80 % 0 in
07:08 50.7 °F 44.8 °F 30.2 in SSW 3.1 mph 4.3 mph 80 % 0 in
07:13 50.5 °F 45 °F 30.2 in SSE 4 mph 4.3 mph 81 % 0 in
07:18 50.4 °F 44.8 °F 30.2 in Calm   4.3 mph 81 % 0 in
07:23 50.2 °F 44.6 °F 30.2 in Calm   4 mph 81 % 0 in
07:28 50.2 °F 44.6 °F 30.2 in Calm   4.7 mph 81 % 0 in
07:33 50.2 °F 45 °F 30.2 in South 0.9 mph 4.7 mph 82 % 0 in
07:38 50.4 °F 45.3 °F 30.2 in South 1.3 mph 6.3 mph 83 % 0 in
07:43 50.5 °F 45.7 °F 30.2 in South 3.8 mph 6.3 mph 83 % 0 in
07:48 50.7 °F 45.7 °F 30.2 in Calm   6.3 mph 83 % 0 in
07:53 50.9 °F 45.9 °F 30.2 in SSW 2.9 mph 5.4 mph 83 % 0 in
07:58 50.9 °F 45.9 °F 30.2 in SSE 3.4 mph 5.4 mph 83 % 0 in
08:03 51.3 °F 46.2 °F 30.2 in SSE 4.7 mph 6 mph 83 % 0 in
08:08 51.4 °F 46.4 °F 30.2 in SSE 2.9 mph 6.3 mph 83 % 0 in
08:13 51.6 °F 46.6 °F 30.2 in Calm   7.4 mph 83 % 0 in
08:18 52 °F 46.6 °F 30.2 in South 4 mph 7.4 mph 82 % 0 in
08:23 52.2 °F 46.8 °F 30.2 in South 3.6 mph 6 mph 82 % 0 in
08:28 52.3 °F 46.9 °F 30.2 in Calm   6 mph 82 % 0 in
08:33 52.5 °F 47.1 °F 30.2 in South 3.6 mph 4.7 mph 82 % 0 in
08:38 52.5 °F 47.3 °F 30.2 in SSW 6.5 mph 6.5 mph 82 % 0 in
08:43 52.9 °F 47.1 °F 30.2 in SSW 4 mph 6.5 mph 81 % 0 in
08:48 53.1 °F 47.3 °F 30.2 in South 1.6 mph 6.5 mph 81 % 0 in
08:53 53.1 °F 46.9 °F 30.2 in Calm   6.5 mph 80 % 0 in
08:58 53.1 °F 46.9 °F 30.2 in South 4.3 mph 6.3 mph 80 % 0 in
09:04 53.4 °F 47.5 °F 30.2 in Calm   6.7 mph 80 % 0 in
09:08 54.3 °F 48.4 °F 30.2 in South 2.9 mph 6.7 mph 80 % 0 in
09:14 55.6 °F 49.3 °F 30.2 in SSW 3.4 mph 6.5 mph 79 % 0 in
09:19 56.3 °F 49.3 °F 30.2 in South 2.2 mph 6.3 mph 77 % 0 in
09:24 56.3 °F 48.6 °F 30.2 in South 3.8 mph 7.6 mph 75 % 0 in
09:29 56.3 °F 48.6 °F 30.2 in SSE 3.1 mph 8.1 mph 75 % 0 in
09:34 57 °F 48.7 °F 30.2 in SSE 5.4 mph 8.1 mph 74 % 0 in
09:39 57.7 °F 49.5 °F 30.2 in SSE 5.8 mph 7.2 mph 74 % 0 in
09:44 58.6 °F 50 °F 30.2 in South 4 mph 6 mph 73 % 0 in
09:49 59.4 °F 50.4 °F 30.2 in SSE 4.3 mph 7.8 mph 72 % 0 in
09:54 60.1 °F 50.2 °F 30.2 in Calm   7.8 mph 70 % 0 in
09:59 60.6 °F 50.4 °F 30.2 in Calm   6.5 mph 69 % 0 in
10:04 61.5 °F 51.3 °F 30.2 in SSW 5.8 mph 5.8 mph 69 % 0 in
10:09 62.1 °F 50.2 °F 30.2 in SSW 6.5 mph 8.7 mph 65 % 0 in
10:14 62.1 °F 49.3 °F 30.2 in SSE 6.3 mph 10.1 mph 63 % 0 in
10:19 62.2 °F 48.9 °F 30.2 in SSW 6 mph 10.1 mph 62 % 0 in
10:24 62.4 °F 48 °F 30.2 in South 6.5 mph 7.6 mph 59 % 0 in
10:29 62.8 °F 48.2 °F 30.2 in SSE 6 mph 8.9 mph 59 % 0 in
10:34 63.1 °F 48.2 °F 30.2 in SSE 3.6 mph 10.5 mph 58 % 0 in
10:39 63.9 °F 48.2 °F 30.2 in SSW 4.9 mph 10.5 mph 57 % 0 in
10:44 64.2 °F 49.3 °F 30.2 in SSW 5.4 mph 9.8 mph 58 % 0 in
10:49 64.8 °F 48.7 °F 30.2 in South 7.8 mph 8.5 mph 56 % 0 in
10:54 65.1 °F 48.6 °F 30.2 in SSE 9.8 mph 9.8 mph 55 % 0 in
10:59 65.3 °F 48.7 °F 30.2 in SSE 6.3 mph 9.8 mph 55 % 0 in
11:04 65.7 °F 48 °F 30.2 in SSE 6 mph 10.5 mph 53 % 0 in
11:09 65.7 °F 47.7 °F 30.2 in South 7.6 mph 10.7 mph 52 % 0 in
11:14 65.8 °F 47.7 °F 30.2 in South 9.6 mph 10.7 mph 52 % 0 in
11:19 66 °F 47.8 °F 30.2 in South 8.7 mph 10.1 mph 52 % 0 in
11:24 66 °F 47.5 °F 30.2 in South 3.8 mph 14.5 mph 51 % 0 in
11:29 66.4 °F 48.2 °F 30.2 in SSE 9.8 mph 14.5 mph 52 % 0 in
11:34 66.7 °F 48 °F 30.2 in SSW 6 mph 10.7 mph 51 % 0 in
11:39 66.7 °F 47.5 °F 30.2 in SSE 9.6 mph 13.2 mph 50 % 0 in
11:44 67.3 °F 48.6 °F 30.2 in SSW 3.8 mph 13.2 mph 51 % 0 in
11:49 67.6 °F 48.4 °F 30.2 in SSW 4.9 mph 11 mph 50 % 0 in
11:54 68 °F 48 °F 30.2 in SSE 7.2 mph 11.9 mph 49 % 0 in
11:59 68 °F 48 °F 30.2 in South 9.6 mph 13 mph 49 % 0 in
12:04 68.2 °F 47.7 °F 30.2 in SSW 6.5 mph 13 mph 48 % 0 in
12:09 68.7 °F 48.7 °F 30.2 in South 6 mph 13 mph 49 % 0 in
12:14 68.7 °F 47.7 °F 30.2 in South 7.8 mph 13.9 mph 47 % 0 in
12:19 68.9 °F 47.8 °F 30.2 in South 9.8 mph 13.9 mph 47 % 0 in
12:24 69.6 °F 48.4 °F 30.2 in WSW 5.8 mph 13.2 mph 47 % 0 in
12:29 70 °F 48.7 °F 30.2 in ESE 8.5 mph 13.2 mph 47 % 0 in
12:34 69.6 °F 48 °F 30.2 in South 6 mph 14.3 mph 46 % 0 in
12:39 70.3 °F 48.6 °F 30.2 in SW 8.5 mph 14.3 mph 46 % 0 in
12:44 70.9 °F 48.4 °F 30.2 in SSW 3.8 mph 11 mph 45 % 0 in
12:49 71.1 °F 48 °F 30.2 in SSW 8.1 mph 15.4 mph 44 % 0 in
12:54 71.1 °F 48 °F 30.2 in SSW 9.8 mph 15.4 mph 44 % 0 in
12:59 71.8 °F 48.6 °F 30.2 in South 7.2 mph 12.3 mph 44 % 0 in
13:04 72 °F 48.4 °F 30.2 in South 6.3 mph 13.2 mph 43 % 0 in
13:09 72 °F 47.5 °F 30.2 in SSW 10.7 mph 15.2 mph 42 % 0 in
13:14 72.1 °F 48.6 °F 30.2 in SW 10.5 mph 15.2 mph 43 % 0 in
13:19 72.1 °F 47.8 °F 30.2 in SSW 9.8 mph 15.2 mph 42 % 0 in
13:24 72.7 °F 48.2 °F 30.2 in South 12.1 mph 15.2 mph 42 % 0 in
13:29 73 °F 48 °F 30.2 in SSW 8.1 mph 12.1 mph 41 % 0 in
13:34 73.2 °F 48.2 °F 30.2 in SW 5.8 mph 11.9 mph 41 % 0 in
13:39 73.6 °F 48.4 °F 30.2 in SSW 9.6 mph 11.9 mph 41 % 0 in
13:44 73.9 °F 48.7 °F 30.2 in SSW 7.4 mph 13 mph 41 % 0 in
13:50 74.1 °F 48.9 °F 30.2 in SSW 13.2 mph 13.2 mph 41 % 0 in
13:55 74.1 °F 48.9 °F 30.2 in SW 8.1 mph 13.2 mph 41 % 0 in
14:00 74.3 °F 47.8 °F 30.2 in South 10.1 mph 13.2 mph 39 % 0 in
14:05 73.9 °F 48 °F 30.2 in SSW 6 mph 11.9 mph 40 % 0 in
14:06 74.3 °F 48.4 °F 30.2 in SSW 7.6 mph 11.9 mph 40 % 0 in
14:11 74.1 °F 48.4 °F 30.2 in South 5.8 mph 13.6 mph 40 % 0 in
14:16 73.9 °F 48 °F 30.2 in SW 12.1 mph 13.6 mph 40 % 0 in
14:17 74.1 °F 48.4 °F 30.2 in SSW 12.8 mph 15.2 mph 40 % 0 in
14:22 74.3 °F 47.8 °F 30.2 in WSW 9.6 mph 15.2 mph 39 % 0 in
14:27 74.5 °F 47.8 °F 30.2 in SW 7.6 mph 12.8 mph 39 % 0 in
14:32 74.3 °F 47.1 °F 30.2 in SSE 8.9 mph 12.8 mph 38 % 0 in
14:37 74.5 °F 47.8 °F 30.2 in SSW 10.7 mph 12.8 mph 39 % 0 in
14:42 74.5 °F 47.1 °F 30.2 in South 10.7 mph 12.8 mph 38 % 0 in
14:47 74.5 °F 47.1 °F 30.2 in SSW 5.6 mph 12.8 mph 38 % 0 in
14:52 74.7 °F 48 °F 30.2 in South 5.8 mph 12.8 mph 39 % 0 in
14:57 74.8 °F 48.2 °F 30.2 in SSW 8.1 mph 12.5 mph 39 % 0 in
15:02 74.3 °F 47.1 °F 30.2 in SSW 10.5 mph 14.8 mph 38 % 0 in
15:07 74.7 °F 47.5 °F 30.2 in SSE 10.3 mph 14.8 mph 38 % 0 in
15:12 74.1 °F 46.9 °F 30.2 in South 5.6 mph 12.3 mph 38 % 0 in
15:17 73.9 °F 47.5 °F 30.2 in SSE 4.3 mph 12.3 mph 39 % 0 in
15:22 73.9 °F 46.8 °F 30.2 in SW 8.1 mph 12.3 mph 38 % 0 in
15:27 73.9 °F 47.5 °F 30.2 in South 7.4 mph 10.1 mph 39 % 0 in
15:32 73.9 °F 47.5 °F 30.2 in SSE 10.7 mph 10.7 mph 39 % 0 in
15:37 73.8 °F 47.3 °F 30.2 in South 8.5 mph 14.3 mph 39 % 0 in
15:42 73.8 °F 47.3 °F 30.2 in South 8.7 mph 13.9 mph 39 % 0 in
15:43 73.8 °F 47.3 °F 30.2 in South 10.5 mph 12.1 mph 39 % 0 in
15:48 73.6 °F 46.4 °F 30.2 in South 8.7 mph 12.1 mph 38 % 0 in
15:53 73.6 °F 46.4 °F 30.1 in South 11 mph 14.8 mph 38 % 0 in
15:58 73.6 °F 47.1 °F 30.1 in SSW 7.4 mph 14.8 mph 39 % 0 in
16:03 73.9 °F 47.5 °F 30.1 in South 7.4 mph 13.4 mph 39 % 0 in
16:08 73.9 °F 47.5 °F 30.1 in South 7.6 mph 13.4 mph 39 % 0 in
16:13 74.1 °F 47.7 °F 30.1 in South 8.5 mph 11.4 mph 39 % 0 in
16:18 73.9 °F 47.5 °F 30.1 in SSE 9.8 mph 11.4 mph 39 % 0 in
16:23 74.3 °F 47.1 °F 30.1 in SSW 5.8 mph 13.2 mph 38 % 0 in
16:28 74.5 °F 47.1 °F 30.1 in SSE 10.5 mph 13.2 mph 38 % 0 in
16:33 73.9 °F 46.8 °F 30.1 in SSE 10.5 mph 11.9 mph 38 % 0 in
16:39 73.8 °F 46.6 °F 30.1 in SSE 7.6 mph 13 mph 38 % 0 in
16:44 73.8 °F 45.9 °F 30.1 in SSW 9.4 mph 14.1 mph 37 % 0 in
16:49 73.9 °F 46.8 °F 30.1 in SE 8.1 mph 14.1 mph 38 % 0 in
16:54 74.3 °F 46.4 °F 30.1 in SSW 7.6 mph 13 mph 37 % 0 in
16:59 73.9 °F 46 °F 30.1 in South 5.8 mph 15.2 mph 37 % 0 in
17:04 73.8 °F 45.9 °F 30.1 in SSW 3.4 mph 15.2 mph 37 % 0 in
17:09 73.8 °F 46.6 °F 30.1 in SE 9.4 mph 12.3 mph 38 % 0 in
17:14 73.8 °F 46.6 °F 30.1 in SSE 4.3 mph 12.1 mph 38 % 0 in
17:19 73.6 °F 46.4 °F 30.1 in SSW 7.6 mph 12.1 mph 38 % 0 in
17:24 73.6 °F 45.7 °F 30.1 in South 8.9 mph 14.1 mph 37 % 0 in
17:29 73.6 °F 45.7 °F 30.1 in SSE 12.8 mph 14.1 mph 37 % 0 in
17:34 73.6 °F 45.7 °F 30.1 in SSE 13.2 mph 13.2 mph 37 % 0 in
17:39 73.6 °F 45.7 °F 30.1 in South 10.5 mph 13.2 mph 37 % 0 in
17:44 73.6 °F 46.4 °F 30.1 in South 7.6 mph 13.2 mph 38 % 0 in
17:49 73.6 °F 46.4 °F 30.1 in SSE 5.8 mph 13 mph 38 % 0 in
17:54 73.6 °F 46.4 °F 30.1 in Calm   13 mph 38 % 0 in
17:59 73.6 °F 46.4 °F 30.1 in SSE 11 mph 11 mph 38 % 0 in
18:04 73.2 °F 46.8 °F 30.1 in SSE 5.8 mph 11 mph 39 % 0 in
18:09 72.9 °F 46.6 °F 30.1 in SSE 5.8 mph 11 mph 39 % 0 in
18:14 72.9 °F 46.6 °F 30.1 in SSE 7.6 mph 9.4 mph 39 % 0 in
18:19 72.7 °F 46.2 °F 30.1 in ESE 7.8 mph 11 mph 39 % 0 in
18:23 72.7 °F 46.2 °F 30.1 in SSW 7.6 mph 11 mph 39 % 0 in
18:28 72.3 °F 46.8 °F 30.1 in South 6.5 mph 12.1 mph 40 % 0 in
18:33 72 °F 46.4 °F 30.1 in SSE 4.9 mph 12.1 mph 40 % 0 in
18:38 72 °F 46.4 °F 30.1 in South 6.3 mph 10.7 mph 40 % 0 in
18:40 72 °F 46.2 °F 30.1 in SSE 6.5 mph 10.7 mph 40 % 0 in
18:45 71.4 °F 45.9 °F 30.1 in SSE 5.8 mph 12.5 mph 40 % 0 in
18:50 71.2 °F 46.2 °F 30.1 in South 5.8 mph 12.5 mph 41 % 0 in
18:55 70.9 °F 45.9 °F 30.1 in SSE 6.3 mph 10.1 mph 41 % 0 in
19:00 70.3 °F 45.5 °F 30.1 in SSE 8.5 mph 10.1 mph 41 % 0 in
19:05 70.3 °F 46 °F 30.1 in South 5.4 mph 9.6 mph 42 % 0 in
19:10 70 °F 45.9 °F 30.1 in South 2 mph 8.5 mph 42 % 0 in
19:15 69.4 °F 45.3 °F 30.1 in SSE 3.4 mph 8.9 mph 42 % 0 in
19:20 69.3 °F 45.1 °F 30.1 in SSE 7.4 mph 8.9 mph 42 % 0 in
19:25 69.1 °F 45 °F 30.1 in SSE 5.6 mph 7.8 mph 42 % 0 in
19:30 68.7 °F 45.3 °F 30.1 in SSE 7.8 mph 10.3 mph 43 % 0 in
19:35 68.5 °F 45.1 °F 30.1 in SSE 3.6 mph 10.3 mph 43 % 0 in
19:40 68.2 °F 44.8 °F 30.1 in SSE 2.5 mph 7.6 mph 43 % 0 in
19:45 67.8 °F 44.4 °F 30.1 in SSE 3.6 mph 5.6 mph 43 % 0 in
19:50 67.5 °F 44.2 °F 30.1 in SSE 5.4 mph 5.6 mph 43 % 0 in
19:55 67.1 °F 44.4 °F 30.1 in Calm   6.5 mph 44 % 0 in
20:00 66.7 °F 44.1 °F 30.1 in SE 2.7 mph 6.5 mph 44 % 0 in
20:05 66.6 °F 44.1 °F 30.1 in SE 2.7 mph 5.4 mph 44 % 0 in
20:10 66.2 °F 44.2 °F 30.1 in SSE 3.6 mph 6 mph 45 % 0 in
20:15 66.2 °F 44.2 °F 30.1 in SSE 7.4 mph 7.4 mph 45 % 0 in
20:20 65.8 °F 43.9 °F 30.1 in SE 5.8 mph 7.4 mph 45 % 0 in
20:25 65.5 °F 43.5 °F 30.1 in SSE 3.1 mph 7.4 mph 45 % 0 in
20:30 65.1 °F 43.9 °F 30.1 in SE 3.4 mph 5.8 mph 46 % 0 in
20:35 64.8 °F 43.5 °F 30.1 in SE 4 mph 5.6 mph 46 % 0 in
20:40 64.2 °F 43.5 °F 30.1 in Calm   5.6 mph 47 % 0 in
20:45 63.9 °F 43.3 °F 30.1 in SSE 5.6 mph 5.6 mph 47 % 0 in
20:50 63.7 °F 43.5 °F 30.1 in SE 4 mph 5.6 mph 48 % 0 in
20:55 63.3 °F 43.3 °F 30.1 in Calm   4.3 mph 48 % 0 in
21:00 63 °F 43.3 °F 30.1 in Calm   4 mph 49 % 0 in
21:05 62.4 °F 43.5 °F 30.1 in Calm   3.8 mph 50 % 0 in
21:10 62.2 °F 43.9 °F 30 in ESE 3.4 mph 4.3 mph 51 % 0 in
21:15 62.1 °F 43.5 °F 30 in Calm   4.3 mph 51 % 0 in
21:20 61.9 °F 44.1 °F 30 in Calm   3.8 mph 52 % 0 in
21:25 61.5 °F 44.2 °F 30 in Calm   2.9 mph 53 % 0 in
21:30 61.5 °F 44.8 °F 30 in SSE 3.4 mph 3.4 mph 54 % 0 in
21:35 61.5 °F 44.8 °F 30 in Calm   4.9 mph 54 % 0 in
21:40 61.5 °F 45.3 °F 30 in Calm   5.6 mph 55 % 0 in
21:45 61.5 °F 45.1 °F 30 in SSE 2.9 mph 5.6 mph 55 % 0 in
21:50 61.5 °F 45.9 °F 30 in South 1.1 mph 6 mph 56 % 0 in
21:55 61.5 °F 45.9 °F 30 in SSE 4.7 mph 6 mph 56 % 0 in
22:00 61.5 °F 46.2 °F 30 in Calm   5.4 mph 57 % 0 in
22:05 61.5 °F 46 °F 30 in SSE 3.6 mph 5.4 mph 57 % 0 in
22:10 61.5 °F 46 °F 30 in SE 4.9 mph 6.5 mph 57 % 0 in
22:15 61.5 °F 46 °F 30 in SSE 3.8 mph 6.5 mph 57 % 0 in
22:20 61.3 °F 46.4 °F 30 in SSE 3.8 mph 5.4 mph 58 % 0 in
22:25 61.3 °F 46.4 °F 30 in SE 4.3 mph 5.6 mph 58 % 0 in
22:30 61.2 °F 46.8 °F 30 in SE 4 mph 6 mph 59 % 0 in
22:35 61.2 °F 46.8 °F 30 in Calm   6 mph 59 % 0 in
22:40 61.3 °F 46.8 °F 30 in Calm   6 mph 59 % 0 in
22:45 61.3 °F 46.8 °F 30 in SE 3.4 mph 6 mph 59 % 0 in
22:50 61.3 °F 46.8 °F 30 in Calm   6.3 mph 59 % 0 in
22:55 61.3 °F 47.3 °F 30 in Calm   6.3 mph 60 % 0 in
23:00 61.3 °F 47.3 °F 30 in Calm   5.8 mph 60 % 0 in
23:05 61.3 °F 47.3 °F 30 in SE 4.3 mph 5.8 mph 60 % 0 in
23:10 61.2 °F 47.1 °F 30 in SE 2.5 mph 5.8 mph 60 % 0 in
23:15 61.2 °F 47.1 °F 30 in SE 3.4 mph 6.3 mph 60 % 0 in
23:20 60.8 °F 46.8 °F 30 in SSE 5.4 mph 6.3 mph 60 % 0 in
23:25 60.4 °F 46.4 °F 30 in SSE 4 mph 5.6 mph 60 % 0 in
23:30 60.3 °F 46.2 °F 30 in ESE 4 mph 5.6 mph 60 % 0 in
23:35 59.9 °F 46.4 °F 30 in SSE 2.9 mph 5.6 mph 61 % 0 in
23:40 59.7 °F 46.6 °F 30 in Calm   5.6 mph 62 % 0 in
23:45 59.5 °F 46.6 °F 30 in Calm   4 mph 62 % 0 in
23:50 59.5 °F 46.6 °F 30 in Calm   4 mph 62 % 0 in
23:55 59.5 °F 46.6 °F 30 in Calm     62 % 0 in
Le Gheer Warneton
Courtoisie de Weather Underground - 2.25 mb

Mise a jour : 17-12-17 07:20:13
Généré par Cumulus 1.9.4 (1099)